HUAL Seoul — LADO6 — position and weather

sailwx.info

Track history (hours):
 
Tides and Currents Weather Stations Pressure Air Temp Water Temp Dewpoint Dewpoint Depression Visibility Wind Speed Wind Dir Waves Ship Positions

HUAL Seoul

Last reported at 2014-Aug-16 03:05 UTC. Time now 2014-Sep-01 18:44 UTC.
Position N 31°21' E 032°22'.
Warning: this ship's position is 16 days out of date.

Type: Cargo ship. MMSI: 257496000.

Date/timePositionNaut miles runAvg speedWind from/ knotsBaromVisibWave heightAir tempDewpointWater temp
2014-Aug-16 03:05N 31°21' E 032°22'4 2.5
2014-Aug-16 01:31N 31°25' E 032°20'0 0.0
2014-Aug-16 00:33N 31°25' E 032°20'0 0.1
2014-Aug-15 23:33N 31°25' E 032°20'6 6.5
2014-Aug-15 22:33N 31°29' E 032°15'1312.7
2014-Aug-15 21:33N 31°39' E 032°04'1212.2
2014-Aug-15 20:33N 31°46' E 031°53'1212.3
2014-Aug-15 19:33N 31°50' E 031°39'1212.0
2014-Aug-15 18:33N 31°53' E 031°26'1211.8
2014-Aug-15 17:33N 31°57' E 031°12'1212.2
2014-Aug-15 16:33N 31°60' E 030°59'1212.2
2014-Aug-15 15:33N 32°04' E 030°45'1312.5
2014-Aug-15 14:33N 32°07' E 030°31'1212.4
2014-Aug-15 13:33N 32°11' E 030°17'1312.6
2014-Aug-15 12:34N 32°15' E 030°03'1312.3
2014-Aug-15 11:32N 32°18' E 029°48'1212.3
2014-Aug-15 10:33N 32°22' E 029°35'1212.4
2014-Aug-15 09:33N 32°25' E 029°21'2412.1
2014-Aug-15 07:33N 32°32' E 028°53'1212.2
2014-Aug-15 06:33N 32°36' E 028°39'1515.1
2014-Aug-15 05:34N 32°40' E 028°22'4413.2
2014-Aug-15 02:14N 32°53' E 027°32'912.6
2014-Aug-15 01:34N 32°55' E 027°23'1312.5
2014-Aug-15 00:34N 32°59' E 027°08'1312.5
2014-Aug-14 23:33N 33°03' E 026°54'1312.7
2014-Aug-14 22:33N 33°06' E 026°39'1712.9
2014-Aug-14 21:15N 33°11' E 026°20'2612.7
2014-Aug-14 19:12N 33°19' E 025°51'66113.4
2014-Aug-12 18:05N 36°39' E 013°02'2213.4
2014-Aug-12 16:26N 36°49' E 012°38'1213.3
2014-Aug-12 15:32N 36°54' E 012°24'2013.8
2014-Aug-12 14:03N 37°03' E 012°01'813.5
2014-Aug-12 13:28N 37°07' E 011°52'1313.9
2014-Aug-12 12:33N 37°12' E 011°38'1413.7
2014-Aug-12 11:30N 37°18' E 011°21'1313.6
2014-Aug-12 10:33N 37°23' E 011°06'1413.7
2014-Aug-12 09:33N 37°28' E 010°50'1313.4
2014-Aug-12 08:33N 37°32' E 010°34'1413.5
2014-Aug-12 07:33N 37°33' E 010°17'1615.6
2014-Aug-12 06:33N 37°32' E 009°57'1716.4
2014-Aug-12 05:32N 37°28' E 009°37'1413.7
2014-Aug-12 04:32N 37°24' E 009°20'1313.3
2014-Aug-12 03:33N 37°21' E 009°05'1413.6
2014-Aug-12 02:32N 37°20' E 008°47'1313.6
2014-Aug-12 01:33N 37°20' E 008°30'1513.5
2014-Aug-12 00:25N 37°20' E 008°11'2813.5
2014-Aug-11 22:22N 37°20' E 007°36'1213.8
2014-Aug-11 21:28N 37°20' E 007°20'1414.0
2014-Aug-11 20:28N 37°20' E 007°03'1713.8
2014-Aug-11 19:15N 37°20' E 006°42'1013.8
2014-Aug-11 18:33N 37°20' E 006°30'1413.5
2014-Aug-11 17:33N 37°20' E 006°13'2713.7
2014-Aug-11 15:33N 37°20' E 005°38'1413.7
2014-Aug-11 14:33N 37°19' E 005°21'1513.7
2014-Aug-11 13:29N 37°17' E 005°03'1313.7
2014-Aug-11 12:33N 37°15' E 004°47'1413.5
2014-Aug-11 11:33N 37°13' E 004°30'1413.6
2014-Aug-11 10:33N 37°11' E 004°14'1413.9
2014-Aug-11 09:33N 37°08' E 003°56'1413.8
2014-Aug-11 08:33N 37°07' E 003°39'1514.7
2014-Aug-11 07:33N 37°05' E 003°21'1414.1
2014-Aug-11 06:33N 37°03' E 003°03'1414.2
2014-Aug-11 05:33N 37°00' E 002°46'1414.3
2014-Aug-11 04:33N 36°58' E 002°28'1414.2
2014-Aug-11 03:33N 36°55' E 002°11'1313.4
2014-Aug-11 02:33N 36°53' E 001°54'1414.1
2014-Aug-11 01:33N 36°50' E 001°37'1414.3
2014-Aug-11 00:34N 36°48' E 001°19'1414.0
2014-Aug-10 23:33N 36°46' E 001°02'1413.9
2014-Aug-10 22:34N 36°43' E 000°45'1414.0
2014-Aug-10 21:34N 36°41' E 000°28'1414.3
2014-Aug-10 20:33N 36°38' E 000°10'1414.5
2014-Aug-10 19:34N 36°36' W 000°07'1414.0
2014-Aug-10 18:33N 36°33' W 000°25'1413.9
2014-Aug-10 17:33N 36°31' W 000°42'1414.0
2014-Aug-10 16:33N 36°29' W 000°59'1413.8
2014-Aug-10 15:33N 36°26' W 001°16'1413.5
2014-Aug-10 14:33N 36°24' W 001°32'1313.5
2014-Aug-10 13:33N 36°22' W 001°49'1413.6
2014-Aug-10 12:34N 36°20' W 002°05'1713.9
2014-Aug-10 11:20N 36°17' W 002°26'1214.1
2014-Aug-10 10:31N 36°16' W 002°40'12615.0
2014-Aug-10 02:04N 35°59' W 005°15'916.3
2014-Aug-10 01:32N 35°58' W 005°26'22213.6
2014-Aug-09 09:12N 36°33' W 009°58'914.3
2014-Aug-09 08:33N 36°36' W 010°09'  
2014-Aug-07 03:29N 39°01' W 023°52'1914.9
2014-Aug-07 02:14N 39°05' W 024°15'2714.9
2014-Aug-07 00:24N 39°10' W 024°50'1214.7
2014-Aug-06 23:33N 39°12' W 025°06'1514.7
2014-Aug-06 22:33N 39°15' W 025°24'1514.8
2014-Aug-06 21:33N 39°18' W 025°43'3514.7
2014-Aug-06 19:10N 39°24' W 026°28'2914.4
2014-Aug-06 17:09N 39°30' W 027°04'1214.1
2014-Aug-06 16:19N 39°32' W 027°19'1114.0
2014-Aug-06 15:33N 39°33' W 027°33'1514.5
2014-Aug-06 14:33N 39°36' W 027°52'1414.3
2014-Aug-06 13:33N 39°39' W 028°10'1413.7
2014-Aug-06 12:33N 39°41' W 028°27'1414.1
2014-Aug-06 11:33N 39°44' W 028°45'1515.5
2014-Aug-06 10:33N 39°47' W 029°05'1515.0
2014-Aug-06 09:33N 39°50' W 029°24'1414.2
2014-Aug-06 08:33N 39°52' W 029°42'1413.8
2014-Aug-06 07:33N 39°55' W 030°00'1413.5
2014-Aug-06 06:32N 39°55' W 030°18'2913.6
2014-Aug-06 04:26N 39°55' W 030°55'1313.6
2014-Aug-06 03:30N 39°55' W 031°12'  
Track history (hours):
 
Tides and Currents Weather Stations Pressure Air Temp Water Temp Dewpoint Dewpoint Depression Visibility Wind Speed Wind Dir Waves Ship Positions

HUAL Seoul

Last reported at 2014-Aug-16 03:05 UTC. Time now 2014-Sep-01 18:44 UTC.
Position N 31°21' E 032°22'.
Warning: this ship's position is 16 days out of date.

Type: Cargo ship. MMSI: 257496000.

Date/timePositionNaut miles runAvg speedWind from/ knotsBaromVisibWave heightAir tempDewpointWater temp
2014-Aug-16 03:05N 31°21' E 032°22'4 2.5
2014-Aug-16 01:31N 31°25' E 032°20'0 0.0
2014-Aug-16 00:33N 31°25' E 032°20'0 0.1
2014-Aug-15 23:33N 31°25' E 032°20'6 6.5
2014-Aug-15 22:33N 31°29' E 032°15'1312.7
2014-Aug-15 21:33N 31°39' E 032°04'1212.2
2014-Aug-15 20:33N 31°46' E 031°53'1212.3
2014-Aug-15 19:33N 31°50' E 031°39'1212.0
2014-Aug-15 18:33N 31°53' E 031°26'1211.8
2014-Aug-15 17:33N 31°57' E 031°12'1212.2
2014-Aug-15 16:33N 31°60' E 030°59'1212.2
2014-Aug-15 15:33N 32°04' E 030°45'1312.5
2014-Aug-15 14:33N 32°07' E 030°31'1212.4
2014-Aug-15 13:33N 32°11' E 030°17'1312.6
2014-Aug-15 12:34N 32°15' E 030°03'1312.3
2014-Aug-15 11:32N 32°18' E 029°48'1212.3
2014-Aug-15 10:33N 32°22' E 029°35'1212.4
2014-Aug-15 09:33N 32°25' E 029°21'2412.1
2014-Aug-15 07:33N 32°32' E 028°53'1212.2
2014-Aug-15 06:33N 32°36' E 028°39'1515.1
2014-Aug-15 05:34N 32°40' E 028°22'4413.2
2014-Aug-15 02:14N 32°53' E 027°32'912.6
2014-Aug-15 01:34N 32°55' E 027°23'1312.5
2014-Aug-15 00:34N 32°59' E 027°08'1312.5
2014-Aug-14 23:33N 33°03' E 026°54'1312.7
2014-Aug-14 22:33N 33°06' E 026°39'1712.9
2014-Aug-14 21:15N 33°11' E 026°20'2612.7
2014-Aug-14 19:12N 33°19' E 025°51'66113.4
2014-Aug-12 18:05N 36°39' E 013°02'2213.4
2014-Aug-12 16:26N 36°49' E 012°38'1213.3
2014-Aug-12 15:32N 36°54' E 012°24'2013.8
2014-Aug-12 14:03N 37°03' E 012°01'813.5
2014-Aug-12 13:28N 37°07' E 011°52'1313.9
2014-Aug-12 12:33N 37°12' E 011°38'1413.7
2014-Aug-12 11:30N 37°18' E 011°21'1313.6
2014-Aug-12 10:33N 37°23' E 011°06'1413.7
2014-Aug-12 09:33N 37°28' E 010°50'1313.4
2014-Aug-12 08:33N 37°32' E 010°34'1413.5
2014-Aug-12 07:33N 37°33' E 010°17'1615.6
2014-Aug-12 06:33N 37°32' E 009°57'1716.4
2014-Aug-12 05:32N 37°28' E 009°37'1413.7
2014-Aug-12 04:32N 37°24' E 009°20'1313.3
2014-Aug-12 03:33N 37°21' E 009°05'1413.6
2014-Aug-12 02:32N 37°20' E 008°47'1313.6
2014-Aug-12 01:33N 37°20' E 008°30'1513.5
2014-Aug-12 00:25N 37°20' E 008°11'2813.5
2014-Aug-11 22:22N 37°20' E 007°36'1213.8
2014-Aug-11 21:28N 37°20' E 007°20'1414.0
2014-Aug-11 20:28N 37°20' E 007°03'1713.8
2014-Aug-11 19:15N 37°20' E 006°42'1013.8
2014-Aug-11 18:33N 37°20' E 006°30'1413.5
2014-Aug-11 17:33N 37°20' E 006°13'2713.7
2014-Aug-11 15:33N 37°20' E 005°38'1413.7
2014-Aug-11 14:33N 37°19' E 005°21'1513.7
2014-Aug-11 13:29N 37°17' E 005°03'1313.7
2014-Aug-11 12:33N 37°15' E 004°47'1413.5
2014-Aug-11 11:33N 37°13' E 004°30'1413.6
2014-Aug-11 10:33N 37°11' E 004°14'1413.9
2014-Aug-11 09:33N 37°08' E 003°56'1413.8
2014-Aug-11 08:33N 37°07' E 003°39'1514.7
2014-Aug-11 07:33N 37°05' E 003°21'1414.1
2014-Aug-11 06:33N 37°03' E 003°03'1414.2
2014-Aug-11 05:33N 37°00' E 002°46'1414.3
2014-Aug-11 04:33N 36°58' E 002°28'1414.2
2014-Aug-11 03:33N 36°55' E 002°11'1313.4
2014-Aug-11 02:33N 36°53' E 001°54'1414.1
2014-Aug-11 01:33N 36°50' E 001°37'1414.3
2014-Aug-11 00:34N 36°48' E 001°19'1414.0
2014-Aug-10 23:33N 36°46' E 001°02'1413.9
2014-Aug-10 22:34N 36°43' E 000°45'1414.0
2014-Aug-10 21:34N 36°41' E 000°28'1414.3
2014-Aug-10 20:33N 36°38' E 000°10'1414.5
2014-Aug-10 19:34N 36°36' W 000°07'1414.0
2014-Aug-10 18:33N 36°33' W 000°25'1413.9
2014-Aug-10 17:33N 36°31' W 000°42'1414.0
2014-Aug-10 16:33N 36°29' W 000°59'1413.8
2014-Aug-10 15:33N 36°26' W 001°16'1413.5
2014-Aug-10 14:33N 36°24' W 001°32'1313.5
2014-Aug-10 13:33N 36°22' W 001°49'1413.6
2014-Aug-10 12:34N 36°20' W 002°05'1713.9
2014-Aug-10 11:20N 36°17' W 002°26'1214.1
2014-Aug-10 10:31N 36°16' W 002°40'12615.0
2014-Aug-10 02:04N 35°59' W 005°15'916.3
2014-Aug-10 01:32N 35°58' W 005°26'22213.6
2014-Aug-09 09:12N 36°33' W 009°58'914.3
2014-Aug-09 08:33N 36°36' W 010°09'  
2014-Aug-07 03:29N 39°01' W 023°52'1914.9
2014-Aug-07 02:14N 39°05' W 024°15'2714.9
2014-Aug-07 00:24N 39°10' W 024°50'1214.7
2014-Aug-06 23:33N 39°12' W 025°06'1514.7
2014-Aug-06 22:33N 39°15' W 025°24'1514.8
2014-Aug-06 21:33N 39°18' W 025°43'3514.7
2014-Aug-06 19:10N 39°24' W 026°28'2914.4
2014-Aug-06 17:09N 39°30' W 027°04'1214.1
2014-Aug-06 16:19N 39°32' W 027°19'1114.0
2014-Aug-06 15:33N 39°33' W 027°33'1514.5
2014-Aug-06 14:33N 39°36' W 027°52'1414.3
2014-Aug-06 13:33N 39°39' W 028°10'1413.7
2014-Aug-06 12:33N 39°41' W 028°27'1414.1
2014-Aug-06 11:33N 39°44' W 028°45'1515.5
2014-Aug-06 10:33N 39°47' W 029°05'1515.0
2014-Aug-06 09:33N 39°50' W 029°24'1414.2
2014-Aug-06 08:33N 39°52' W 029°42'1413.8
2014-Aug-06 07:33N 39°55' W 030°00'1413.5
2014-Aug-06 06:32N 39°55' W 030°18'2913.6
2014-Aug-06 04:26N 39°55' W 030°55'1313.6
2014-Aug-06 03:30N 39°55' W 031°12'  

Dump ship's entire track history